createdAt,value
2019-01-02T00:01:59.416Z,71.28
2019-01-02T00:04:31.917Z,70.96
2019-01-02T00:07:02.485Z,70.94
2019-01-02T00:09:35.582Z,70.86
2019-01-02T00:12:06.718Z,70.81
2019-01-02T00:14:37.246Z,70.86
2019-01-02T00:17:08.287Z,71.43
2019-01-02T00:19:41.666Z,72.37
2019-01-02T00:22:12.533Z,72.87
2019-01-02T00:24:45.311Z,73.02
2019-01-02T00:27:16.112Z,73.07
2019-01-02T00:29:47.361Z,72.99
2019-01-02T00:32:17.979Z,72.81
2019-01-02T00:34:52.227Z,72.47
2019-01-02T00:37:22.776Z,72.20
2019-01-02T00:39:53.302Z,71.98
2019-01-02T00:42:23.790Z,71.72
2019-01-02T00:44:54.559Z,71.48
2019-01-02T00:47:25.674Z,71.29
2019-01-02T00:49:56.497Z,71.25
2019-01-02T00:52:27.367Z,70.98
2019-01-02T00:54:58.100Z,70.89
2019-01-02T00:57:29.214Z,70.93
2019-01-02T00:59:59.927Z,70.83
2019-01-02T01:02:30.917Z,70.88
2019-01-02T01:05:01.427Z,70.92
2019-01-02T01:07:33.981Z,70.93
2019-01-02T01:10:08.188Z,70.96
2019-01-02T01:12:43.317Z,71.00
2019-01-02T01:15:17.489Z,71.13
2019-01-02T01:17:48.173Z,71.34
2019-01-02T01:20:21.430Z,71.47
2019-01-02T01:22:51.915Z,71.49
2019-01-02T01:25:25.817Z,71.49
2019-01-02T01:27:56.326Z,71.52
2019-01-02T01:30:28.755Z,71.30
2019-01-02T01:32:59.238Z,71.15
2019-01-02T01:35:29.888Z,70.92
2019-01-02T01:38:03.268Z,70.82
2019-01-02T01:40:35.321Z,70.83
2019-01-02T01:43:07.238Z,70.80
2019-01-02T01:45:40.463Z,70.83
2019-01-02T01:48:11.226Z,70.86
2019-01-02T01:50:44.928Z,70.84
2019-01-02T01:53:17.873Z,70.70
2019-01-02T01:55:48.448Z,70.73
2019-01-02T01:58:19.666Z,70.70
2019-01-02T02:00:50.755Z,70.72
2019-01-02T02:03:21.438Z,70.71
2019-01-02T02:05:54.518Z,70.76
2019-01-02T02:08:25.568Z,70.77
2019-01-02T02:10:58.545Z,70.84
2019-01-02T02:13:32.468Z,70.87
2019-01-02T02:16:05.988Z,70.92
2019-01-02T02:18:36.770Z,70.80
2019-01-02T02:21:09.409Z,70.85
2019-01-02T02:23:39.924Z,70.82
2019-01-02T02:26:10.440Z,70.89
2019-01-02T02:28:41.471Z,70.89
2019-01-02T02:31:12.102Z,70.90
2019-01-02T02:33:43.217Z,70.87
2019-01-02T02:36:17.065Z,71.06
2019-01-02T02:38:47.780Z,71.35
2019-01-02T02:41:18.656Z,71.69
2019-01-02T02:43:49.507Z,71.82
2019-01-02T02:46:22.842Z,71.85
2019-01-02T02:48:55.507Z,71.88
2019-01-02T02:51:26.551Z,71.94
2019-01-02T02:53:57.474Z,71.84
2019-01-02T02:56:28.708Z,71.84
2019-01-02T02:58:59.679Z,71.82
2019-01-02T03:01:30.967Z,71.87
2019-01-02T03:04:02.222Z,71.93
2019-01-02T03:06:35.687Z,71.79
2019-01-02T03:09:09.686Z,71.79
2019-01-02T03:11:40.517Z,71.54
2019-01-02T03:14:14.146Z,71.41
2019-01-02T03:16:45.831Z,70.88
2019-01-02T03:19:17.048Z,70.48
2019-01-02T03:21:47.785Z,70.27
2019-01-02T03:24:18.579Z,69.82
2019-01-02T03:26:48.964Z,69.72
2019-01-02T03:29:19.280Z,69.76
2019-01-02T03:31:49.980Z,69.72
2019-01-02T03:34:20.780Z,69.74
2019-01-02T03:36:51.156Z,69.86
2019-01-02T03:39:21.561Z,70.04
2019-01-02T03:41:51.993Z,70.23
2019-01-02T03:44:22.921Z,70.39
2019-01-02T03:46:53.491Z,70.58
2019-01-02T03:49:24.518Z,70.71
2019-01-02T03:51:55.364Z,70.85
2019-01-02T03:54:28.256Z,71.02
2019-01-02T03:57:00.544Z,71.13
2019-01-02T03:59:33.152Z,71.14
2019-01-02T04:02:07.341Z,71.24
2019-01-02T04:04:43.216Z,71.36
2019-01-02T04:07:14.006Z,71.36
2019-01-02T04:09:44.461Z,71.36
2019-01-02T04:12:15.600Z,71.16
2019-01-02T04:14:58.536Z,70.92
2019-01-02T04:17:29.643Z,70.88
2019-01-02T04:20:03.200Z,70.81
2019-01-02T04:22:33.476Z,70.68
2019-01-02T04:25:03.988Z,70.32
2019-01-02T04:27:34.778Z,69.96
2019-01-02T04:30:10.174Z,69.90
2019-01-02T04:32:40.557Z,70.03
2019-01-02T04:35:10.818Z,69.95
2019-01-02T04:37:41.199Z,69.91
2019-01-02T04:40:13.310Z,69.92
2019-01-02T04:42:43.652Z,69.94
2019-01-02T04:45:13.978Z,69.79
2019-01-02T04:47:44.277Z,69.86
2019-01-02T04:50:15.847Z,69.87
2019-01-02T04:52:46.247Z,69.81
2019-01-02T04:55:16.528Z,69.64
2019-01-02T04:57:47.046Z,69.38
2019-01-02T05:00:18.801Z,69.21
2019-01-02T05:02:49.107Z,69.06
2019-01-02T05:05:19.482Z,69.07
2019-01-02T05:07:49.807Z,69.12
2019-01-02T05:10:20.182Z,69.22
2019-01-02T05:12:50.464Z,69.34
2019-01-02T05:15:20.872Z,69.55
2019-01-02T05:17:51.180Z,69.66
2019-01-02T05:20:32.679Z,69.77
2019-01-02T05:23:06.457Z,69.76
2019-01-02T05:25:36.798Z,69.71
2019-01-02T05:28:07.172Z,69.53
2019-01-02T05:30:37.565Z,69.59
2019-01-02T05:33:09.317Z,69.37
2019-01-02T05:35:40.109Z,69.26
2019-01-02T05:38:10.760Z,69.09
2019-01-02T05:40:41.294Z,68.84
2019-01-02T05:43:11.954Z,68.93
2019-01-02T05:46:00.592Z,68.91
2019-01-02T05:48:33.521Z,68.59
2019-01-02T05:51:11.747Z,68.57
2019-01-02T05:53:51.832Z,68.45
2019-01-02T05:56:31.515Z,68.54
2019-01-02T06:01:52.948Z,69.09
2019-01-02T06:04:29.601Z,69.31
2019-01-02T06:07:17.314Z,69.39
2019-01-02T06:09:49.358Z,69.46
2019-01-02T06:12:27.714Z,69.54
2019-01-02T06:15:11.005Z,69.58
2019-01-02T06:17:45.733Z,69.22
2019-01-02T06:20:24.225Z,69.16
2019-01-02T06:22:59.871Z,68.93
2019-01-02T06:25:30.418Z,68.76
2019-01-02T06:28:01.493Z,68.68
2019-01-02T06:30:31.984Z,68.57
2019-01-02T06:33:02.787Z,68.42
2019-01-02T06:35:35.223Z,67.94
2019-01-02T06:38:06.072Z,67.55
2019-01-02T06:40:37.961Z,67.50
2019-01-02T06:43:09.952Z,67.59
2019-01-02T06:45:41.564Z,67.54
2019-01-02T06:48:16.821Z,67.49
2019-01-02T06:50:50.305Z,67.45
2019-01-02T06:53:20.885Z,67.31
2019-01-02T06:55:56.865Z,67.17
2019-01-02T06:58:35.027Z,67.16
2019-01-02T07:01:40.213Z,67.06
2019-01-02T07:04:13.113Z,66.97
2019-01-02T07:06:47.165Z,66.95
2019-01-02T07:09:18.001Z,66.72
2019-01-02T07:11:49.505Z,66.68
2019-01-02T07:14:21.686Z,66.54
2019-01-02T07:16:53.859Z,66.59
2019-01-02T07:19:24.749Z,66.60
2019-01-02T07:21:55.315Z,66.54
2019-01-02T07:24:26.017Z,66.66
2019-01-02T07:26:57.272Z,66.84
2019-01-02T07:29:27.871Z,67.09
2019-01-02T07:32:06.143Z,67.29
2019-01-02T07:36:04.098Z,67.54
2019-01-02T07:39:40.330Z,67.84
2019-01-02T07:43:12.463Z,68.32
2019-01-02T07:46:24.470Z,68.45
2019-01-02T07:49:51.381Z,68.50
2019-01-02T07:53:43.200Z,68.48
2019-01-02T07:57:01.562Z,68.53
2019-01-02T08:00:36.842Z,68.75
2019-01-02T08:04:15.199Z,69.01
2019-01-02T08:07:42.272Z,69.15
2019-01-02T08:11:01.592Z,69.18
2019-01-02T08:14:34.389Z,69.15
2019-01-02T08:17:50.132Z,69.03
2019-01-02T08:21:33.245Z,69.02
2019-01-02T08:25:26.966Z,69.14
2019-01-02T08:28:52.598Z,69.40
2019-01-02T08:31:49.915Z,69.44
2019-01-02T08:35:18.024Z,69.33
2019-01-02T08:38:31.587Z,69.22
2019-01-02T08:42:10.521Z,69.08
2019-01-02T08:45:14.102Z,69.07
2019-01-02T08:48:49.691Z,69.07
2019-01-02T08:52:12.204Z,69.03
2019-01-02T08:55:36.209Z,69.22
2019-01-02T08:59:07.755Z,69.52
2019-01-02T09:02:34.665Z,69.69
2019-01-02T09:05:45.366Z,69.83
2019-01-02T09:09:16.347Z,69.85
2019-01-02T09:12:53.754Z,69.85
2019-01-02T09:16:02.711Z,69.86
2019-01-02T09:19:01.807Z,69.86
2019-01-02T09:22:41.710Z,69.90
2019-01-02T09:26:17.696Z,69.90
2019-01-02T09:29:55.095Z,70.05
2019-01-02T09:33:23.898Z,70.01
2019-01-02T09:36:44.779Z,70.11
2019-01-02T09:40:28.828Z,69.98
2019-01-02T09:43:45.304Z,69.66
2019-01-02T09:47:11.041Z,69.57
2019-01-02T09:50:37.756Z,69.41
2019-01-02T09:53:52.493Z,69.27
2019-01-02T09:57:23.779Z,69.25
2019-01-02T10:00:43.260Z,69.26
2019-01-02T10:03:54.608Z,69.37
2019-01-02T10:07:22.546Z,69.50
2019-01-02T10:10:46.494Z,69.47
2019-01-02T10:13:58.343Z,69.46
2019-01-02T10:17:23.259Z,69.45
2019-01-02T10:20:56.429Z,69.33
2019-01-02T10:24:27.072Z,69.12
2019-01-02T10:27:53.483Z,69.12
2019-01-02T10:31:18.027Z,69.10
2019-01-02T10:34:39.934Z,69.03
2019-01-02T10:38:17.579Z,68.89
2019-01-02T10:41:40.598Z,68.83
2019-01-02T10:45:09.516Z,68.70
2019-01-02T10:48:24.445Z,68.57
2019-01-02T10:51:54.653Z,68.45
2019-01-02T10:55:21.263Z,68.41
2019-01-02T10:59:00.241Z,68.33
2019-01-02T11:02:23.814Z,68.06
2019-01-02T11:06:05.233Z,67.62
2019-01-02T12:39:55.934Z,62.02
2019-01-02T12:42:34.145Z,62.05
2019-01-02T12:45:25.529Z,61.85
2019-01-02T12:48:03.049Z,61.64
2019-01-02T12:50:40.512Z,61.54
2019-01-02T12:53:14.859Z,61.59
2019-01-02T12:56:06.507Z,61.42
2019-01-02T12:58:45.090Z,60.77
2019-01-02T13:02:31.794Z,60.21
2019-01-02T13:06:12.650Z,59.71
2019-01-02T13:09:51.688Z,59.90
2019-01-02T13:13:27.407Z,60.44
2019-01-02T13:16:39.866Z,60.78
2019-01-02T13:20:28.071Z,60.90
2019-01-02T13:23:37.110Z,61.12
2019-01-02T13:27:16.511Z,61.29
2019-01-02T13:30:45.356Z,61.27
2019-01-02T13:34:05.028Z,61.46
2019-01-02T13:37:25.702Z,61.59
2019-01-02T13:41:15.285Z,61.70
2019-01-02T13:43:59.623Z,61.75
2019-01-02T13:47:06.610Z,62.00
2019-01-02T13:50:29.123Z,62.07
2019-01-02T13:53:02.698Z,62.18
2019-01-02T13:55:34.463Z,62.22
2019-01-02T13:58:08.256Z,62.16
2019-01-02T14:00:43.073Z,62.21
2019-01-02T14:03:15.085Z,62.29
2019-01-02T14:05:51.758Z,62.44
2019-01-02T14:08:23.021Z,62.54
2019-01-02T14:10:53.649Z,62.67
2019-01-02T14:13:24.730Z,62.79
2019-01-02T14:16:02.796Z,62.90
2019-01-02T14:18:36.654Z,62.97
2019-01-02T14:21:07.549Z,63.07
2019-01-02T14:23:40.254Z,63.16
2019-01-02T14:26:13.512Z,63.22
2019-01-02T14:28:46.028Z,63.34
2019-01-02T14:31:19.667Z,63.44
2019-01-02T14:33:52.609Z,63.57
2019-01-02T14:36:26.587Z,63.65
2019-01-02T14:38:57.080Z,63.86
2019-01-02T14:41:27.565Z,64.02
2019-01-02T14:43:58.255Z,64.18
2019-01-02T14:46:28.691Z,64.31
2019-01-02T14:48:59.120Z,64.40
2019-01-02T14:51:30.371Z,64.51
2019-01-02T14:54:01.284Z,64.58
2019-01-02T14:56:31.703Z,64.63
2019-01-02T14:59:02.048Z,64.72
2019-01-02T15:01:34.080Z,64.82
2019-01-02T15:04:04.521Z,64.95
2019-01-02T15:06:37.493Z,65.07
2019-01-02T15:09:09.998Z,65.17
2019-01-02T15:11:40.533Z,65.22
2019-01-02T15:14:12.241Z,65.29
2019-01-02T15:16:44.651Z,65.39
2019-01-02T15:19:14.896Z,65.59
2019-01-02T15:21:48.251Z,65.86
2019-01-02T15:24:21.644Z,66.12
2019-01-02T15:26:54.570Z,66.34
2019-01-02T15:29:26.013Z,66.57
2019-01-02T15:31:59.433Z,66.84
2019-01-02T15:34:30.024Z,67.08
2019-01-02T15:37:00.372Z,67.34
2019-01-02T15:39:30.801Z,67.57
2019-01-02T15:42:01.104Z,67.78
2019-01-02T15:44:31.368Z,67.97
2019-01-02T15:47:01.770Z,68.16
2019-01-02T15:49:32.308Z,68.34
2019-01-02T15:52:02.761Z,68.52
2019-01-02T15:54:33.114Z,68.68
2019-01-02T15:57:03.605Z,68.83
2019-01-02T15:59:34.093Z,68.92
2019-01-02T16:02:04.508Z,69.04
2019-01-02T16:04:40.870Z,69.16
2019-01-02T16:07:08.221Z,69.35
2019-01-02T16:09:38.671Z,69.53
2019-01-02T16:12:09.016Z,69.67
2019-01-02T16:14:39.609Z,69.76
2019-01-02T16:17:09.945Z,69.87
2019-01-02T16:19:40.629Z,69.94
2019-01-02T16:22:11.097Z,70.09
2019-01-02T16:24:50.671Z,70.25
2019-01-02T16:27:21.156Z,70.41
2019-01-02T16:29:52.436Z,70.56
2019-01-02T16:32:24.289Z,70.67
2019-01-02T16:34:56.133Z,70.78
2019-01-02T16:37:26.705Z,70.88
2019-01-02T16:39:58.698Z,70.98
2019-01-02T16:42:29.609Z,71.07
2019-01-02T16:45:00.216Z,71.18
2019-01-02T16:47:31.707Z,71.34
2019-01-02T16:50:02.948Z,71.46
2019-01-02T16:52:37.018Z,71.65
2019-01-02T16:55:10.458Z,71.80
2019-01-02T16:57:41.224Z,71.89
2019-01-02T17:00:14.816Z,71.99
2019-01-02T17:02:46.511Z,72.12
2019-01-02T17:05:16.880Z,72.19
2019-01-02T17:07:47.466Z,72.23
2019-01-02T17:10:17.956Z,72.26
2019-01-02T17:12:48.414Z,72.28
2019-01-02T17:15:19.005Z,72.27
2019-01-02T17:17:50.271Z,72.25
2019-01-02T17:20:20.903Z,72.25
2019-01-02T17:22:51.334Z,72.21
2019-01-02T17:25:28.219Z,72.18
2019-01-02T17:27:59.954Z,72.11
2019-01-02T17:30:31.106Z,72.03
2019-01-02T17:33:01.737Z,71.98
2019-01-02T17:35:32.143Z,71.92
2019-01-02T17:38:03.154Z,71.91
2019-01-02T17:40:34.606Z,71.91
2019-01-02T17:43:05.005Z,71.94
2019-01-02T17:45:35.430Z,72.05
2019-01-02T17:48:08.644Z,72.15
2019-01-02T17:50:39.149Z,72.24
2019-01-02T17:53:09.661Z,72.34
2019-01-02T17:55:40.066Z,72.38
2019-01-02T17:58:10.597Z,72.42
2019-01-02T18:00:44.278Z,72.49
2019-01-02T18:03:14.616Z,72.56
2019-01-02T18:05:45.126Z,72.62
2019-01-02T18:08:16.615Z,72.62
2019-01-02T18:10:47.040Z,72.61
2019-01-02T18:13:17.462Z,72.58
2019-01-02T18:15:47.920Z,72.55
2019-01-02T18:18:18.365Z,72.55
2019-01-02T18:20:48.974Z,72.56
2019-01-02T18:23:19.374Z,72.56
2019-01-02T18:25:49.859Z,72.55
2019-01-02T18:28:20.301Z,72.55
2019-01-02T18:30:50.710Z,72.58
2019-01-02T18:33:22.397Z,72.56
2019-01-02T18:35:53.039Z,72.60
2019-01-02T18:38:23.364Z,72.66
2019-01-02T18:40:53.944Z,72.73
2019-01-02T18:43:24.233Z,72.79
2019-01-02T18:45:54.823Z,72.82
2019-01-02T18:48:25.372Z,72.86
2019-01-02T18:50:56.704Z,72.89
2019-01-02T18:53:26.953Z,72.90
2019-01-02T18:55:58.809Z,72.89
2019-01-02T18:58:31.247Z,72.91
2019-01-02T19:01:01.630Z,72.92
2019-01-02T19:03:31.871Z,72.92
2019-01-02T19:06:02.366Z,72.96
2019-01-02T19:08:32.638Z,73.00
2019-01-02T19:11:03.112Z,73.05
2019-01-02T19:13:53.524Z,73.11
2019-01-02T19:16:23.971Z,73.21
2019-01-02T19:18:54.306Z,73.38
2019-01-02T19:21:24.827Z,73.60
2019-01-02T19:23:55.362Z,73.75
2019-01-02T19:26:25.606Z,73.94
2019-01-02T19:28:55.979Z,74.05
2019-01-02T19:31:26.338Z,74.19
2019-01-02T19:33:57.646Z,74.32
2019-01-02T19:36:28.049Z,74.47
2019-01-02T19:38:58.859Z,74.60
2019-01-02T19:41:29.286Z,74.71
2019-01-02T19:43:59.670Z,74.83
2019-01-02T19:46:30.328Z,74.83
2019-01-02T19:49:00.833Z,74.83
2019-01-02T19:51:31.237Z,74.75
2019-01-02T19:54:01.600Z,74.68
2019-01-02T19:56:32.096Z,74.64
2019-01-02T19:59:02.493Z,74.53
2019-01-02T20:01:32.881Z,74.49
2019-01-02T20:04:03.225Z,74.49
2019-01-02T20:06:33.650Z,74.52
2019-01-02T20:09:05.193Z,74.55
2019-01-02T20:11:35.656Z,74.60
2019-01-02T20:14:07.144Z,74.70
2019-01-02T20:16:37.460Z,74.83
2019-01-02T20:19:07.959Z,74.93
2019-01-02T20:21:38.341Z,75.11
2019-01-02T20:24:08.872Z,75.19
2019-01-02T20:26:39.403Z,75.27
2019-01-02T20:29:09.857Z,75.36
2019-01-02T20:31:40.801Z,75.44
2019-01-02T20:34:11.188Z,75.58
2019-01-02T20:36:42.307Z,75.64
2019-01-02T20:39:13.344Z,75.67
2019-01-02T20:41:43.819Z,75.72
2019-01-02T20:44:14.354Z,75.79
2019-01-02T20:46:45.641Z,75.86
2019-01-02T20:49:16.098Z,75.91
2019-01-02T20:51:46.433Z,76.03
2019-01-02T20:54:16.911Z,76.11
2019-01-02T20:56:47.303Z,76.22
2019-01-02T20:59:17.767Z,76.30
2019-01-02T21:01:48.122Z,76.41
2019-01-02T21:04:18.439Z,76.50
2019-01-02T21:06:48.888Z,76.65
2019-01-02T21:09:19.328Z,76.86
2019-01-02T21:11:49.723Z,77.03
2019-01-02T21:14:21.785Z,77.22
2019-01-02T21:16:52.171Z,77.39
2019-01-02T21:19:22.668Z,77.55
2019-01-02T21:21:53.178Z,77.53
2019-01-02T21:24:25.199Z,77.67
2019-01-02T21:26:58.322Z,77.73
2019-01-02T21:29:28.671Z,77.77
2019-01-02T21:31:58.991Z,77.73
2019-01-02T21:34:29.353Z,77.70
2019-01-02T21:36:59.787Z,77.59
2019-01-02T21:39:30.146Z,77.50
2019-01-02T21:42:00.473Z,77.45
2019-01-02T21:44:30.758Z,77.40
2019-01-02T21:47:01.107Z,77.40
2019-01-02T21:49:31.416Z,77.46
2019-01-02T21:52:01.860Z,77.49
2019-01-02T21:54:32.097Z,77.53
2019-01-02T21:57:02.554Z,77.57
2019-01-02T21:59:32.976Z,77.60
2019-01-02T22:02:07.427Z,77.59
2019-01-02T22:04:37.806Z,77.59
2019-01-02T22:07:08.248Z,77.62
2019-01-02T22:09:38.710Z,77.65
2019-01-02T22:12:09.129Z,77.73
2019-01-02T22:14:39.455Z,77.68
2019-01-02T22:17:09.816Z,77.68
2019-01-02T22:19:40.241Z,77.67
2019-01-02T22:22:10.634Z,77.76
2019-01-02T22:24:41.073Z,77.73
2019-01-02T22:27:11.538Z,77.71
2019-01-02T22:29:41.978Z,77.76
2019-01-02T22:32:12.290Z,77.77
2019-01-02T22:34:42.729Z,77.80
2019-01-02T22:37:13.913Z,77.79
2019-01-02T22:39:44.243Z,77.83
2019-01-02T22:42:14.797Z,77.91
2019-01-02T22:44:45.210Z,77.97
2019-01-02T22:47:15.680Z,78.08
2019-01-02T22:49:45.988Z,78.12
2019-01-02T22:52:17.610Z,78.15
2019-01-02T22:54:47.954Z,78.23
2019-01-02T22:57:18.318Z,78.35
2019-01-02T22:59:48.670Z,78.44
2019-01-02T23:02:36.538Z,78.54
2019-01-02T23:05:29.736Z,78.67
2019-01-02T23:08:28.260Z,78.74
2019-01-02T23:11:22.295Z,78.86
2019-01-02T23:14:14.347Z,78.98
2019-01-02T23:17:03.670Z,79.07
2019-01-02T23:20:11.063Z,79.05
2019-01-02T23:22:59.213Z,79.10
2019-01-02T23:25:47.211Z,79.17
2019-01-02T23:28:48.939Z,79.22
2019-01-02T23:31:47.403Z,79.19
2019-01-02T23:34:39.938Z,78.97
2019-01-02T23:37:29.219Z,78.88
2019-01-02T23:40:30.749Z,78.85
2019-01-02T23:43:18.767Z,78.80
2019-01-02T23:46:07.984Z,78.86
2019-01-02T23:49:09.518Z,78.74
2019-01-02T23:51:58.116Z,78.78
2019-01-02T23:54:53.743Z,78.83
2019-01-02T23:57:50.588Z,78.92
